sensor_id;sensor_type;location;lat;lon;timestamp;temperature;humidity
76099;DHT22;64828;49.956;8.636;2023-02-11T00:00:07;0.00;87.80
76099;DHT22;64828;49.956;8.636;2023-02-11T00:00:23;0.00;87.80
76099;DHT22;64828;49.956;8.636;2023-02-11T00:00:40;0.00;87.80
76099;DHT22;64828;49.956;8.636;2023-02-11T00:00:56;0.00;87.80
76099;DHT22;64828;49.956;8.636;2023-02-11T00:01:28;0.00;87.80
76099;DHT22;64828;49.956;8.636;2023-02-11T00:01:49;0.00;88.10
76099;DHT22;64828;49.956;8.636;2023-02-11T00:02:04;0.00;88.10
76099;DHT22;64828;49.956;8.636;2023-02-11T00:02:21;0.00;88.00
76099;DHT22;64828;49.956;8.636;2023-02-11T00:02:37;0.00;88.00
76099;DHT22;64828;49.956;8.636;2023-02-11T00:02:53;0.00;88.00
76099;DHT22;64828;49.956;8.636;2023-02-11T00:03:09;0.00;88.00
76099;DHT22;64828;49.956;8.636;2023-02-11T00:03:24;0.00;88.00
76099;DHT22;64828;49.956;8.636;2023-02-11T00:03:40;0.00;88.00
76099;DHT22;64828;49.956;8.636;2023-02-11T00:03:56;0.00;88.00
76099;DHT22;64828;49.956;8.636;2023-02-11T00:04:13;0.00;88.00
76099;DHT22;64828;49.956;8.636;2023-02-11T00:04:29;0.00;88.10
76099;DHT22;64828;49.956;8.636;2023-02-11T00:04:45;0.00;87.90
76099;DHT22;64828;49.956;8.636;2023-02-11T00:05:01;0.00;87.90
76099;DHT22;64828;49.956;8.636;2023-02-11T00:05:16;0.00;88.00
76099;DHT22;64828;49.956;8.636;2023-02-11T00:05:32;0.10;88.00
76099;DHT22;64828;49.956;8.636;2023-02-11T00:05:59;0.10;88.00
76099;DHT22;64828;49.956;8.636;2023-02-11T00:06:16;0.00;87.90
76099;DHT22;64828;49.956;8.636;2023-02-11T00:06:33;0.10;87.90
76099;DHT22;64828;49.956;8.636;2023-02-11T00:06:50;0.10;87.80
76099;DHT22;64828;49.956;8.636;2023-02-11T00:07:05;0.00;87.80
76099;DHT22;64828;49.956;8.636;2023-02-11T00:07:21;0.10;87.70
76099;DHT22;64828;49.956;8.636;2023-02-11T00:07:36;0.00;87.70
76099;DHT22;64828;49.956;8.636;2023-02-11T00:07:52;0.00;87.70
76099;DHT22;64828;49.956;8.636;2023-02-11T00:08:08;0.00;87.70
76099;DHT22;64828;49.956;8.636;2023-02-11T00:08:23;0.00;87.60
76099;DHT22;64828;49.956;8.636;2023-02-11T00:08:39;0.00;87.60
76099;DHT22;64828;49.956;8.636;2023-02-11T00:08:55;0.00;87.80
76099;DHT22;64828;49.956;8.636;2023-02-11T00:09:11;0.10;87.90
76099;DHT22;64828;49.956;8.636;2023-02-11T00:09:27;0.10;87.80
76099;DHT22;64828;49.956;8.636;2023-02-11T00:09:42;0.10;87.70
76099;DHT22;64828;49.956;8.636;2023-02-11T00:09:58;0.10;87.60
76099;DHT22;64828;49.956;8.636;2023-02-11T00:10:14;0.10;87.70
76099;DHT22;64828;49.956;8.636;2023-02-11T00:10:30;0.10;87.60
76099;DHT22;64828;49.956;8.636;2023-02-11T00:10:45;0.10;87.70
76099;DHT22;64828;49.956;8.636;2023-02-11T00:11:06;0.10;87.70
76099;DHT22;64828;49.956;8.636;2023-02-11T00:11:23;0.10;87.80
76099;DHT22;64828;49.956;8.636;2023-02-11T00:11:40;0.10;87.80
76099;DHT22;64828;49.956;8.636;2023-02-11T00:11:56;0.10;87.80
76099;DHT22;64828;49.956;8.636;2023-02-11T00:12:11;0.10;87.80
76099;DHT22;64828;49.956;8.636;2023-02-11T00:12:27;0.10;87.70
76099;DHT22;64828;49.956;8.636;2023-02-11T00:12:43;0.10;87.50
76099;DHT22;64828;49.956;8.636;2023-02-11T00:12:59;0.10;87.40
76099;DHT22;64828;49.956;8.636;2023-02-11T00:13:14;0.00;87.50
76099;DHT22;64828;49.956;8.636;2023-02-11T00:13:30;0.10;87.60
76099;DHT22;64828;49.956;8.636;2023-02-11T00:13:46;0.10;87.60
76099;DHT22;64828;49.956;8.636;2023-02-11T00:14:04;0.10;87.70
76099;DHT22;64828;49.956;8.636;2023-02-11T00:14:22;0.10;87.80
76099;DHT22;64828;49.956;8.636;2023-02-11T00:14:39;0.10;87.90
76099;DHT22;64828;49.956;8.636;2023-02-11T00:14:54;0.10;87.80
76099;DHT22;64828;49.956;8.636;2023-02-11T00:15:10;0.20;87.70
76099;DHT22;64828;49.956;8.636;2023-02-11T00:15:26;0.10;87.60
76099;DHT22;64828;49.956;8.636;2023-02-11T00:15:41;0.10;87.60
76099;DHT22;64828;49.956;8.636;2023-02-11T00:15:57;0.20;87.50
76099;DHT22;64828;49.956;8.636;2023-02-11T00:16:15;0.10;87.40
76099;DHT22;64828;49.956;8.636;2023-02-11T00:16:34;0.10;87.50
76099;DHT22;64828;49.956;8.636;2023-02-11T00:16:49;0.10;87.50
76099;DHT22;64828;49.956;8.636;2023-02-11T00:17:05;0.10;87.50
76099;DHT22;64828;49.956;8.636;2023-02-11T00:17:21;0.10;87.40
76099;DHT22;64828;49.956;8.636;2023-02-11T00:17:36;0.10;87.40
76099;DHT22;64828;49.956;8.636;2023-02-11T00:17:52;0.10;87.40
76099;DHT22;64828;49.956;8.636;2023-02-11T00:18:07;0.10;87.50
76099;DHT22;64828;49.956;8.636;2023-02-11T00:18:23;0.10;87.50
76099;DHT22;64828;49.956;8.636;2023-02-11T00:18:39;0.00;87.40
76099;DHT22;64828;49.956;8.636;2023-02-11T00:18:54;0.10;87.50
76099;DHT22;64828;49.956;8.636;2023-02-11T00:19:10;0.10;87.70
76099;DHT22;64828;49.956;8.636;2023-02-11T00:19:26;0.10;87.70
76099;DHT22;64828;49.956;8.636;2023-02-11T00:19:41;0.10;87.60
76099;DHT22;64828;49.956;8.636;2023-02-11T00:19:57;0.10;87.70
76099;DHT22;64828;49.956;8.636;2023-02-11T00:20:12;0.10;87.70
76099;DHT22;64828;49.956;8.636;2023-02-11T00:20:28;0.10;87.50
76099;DHT22;64828;49.956;8.636;2023-02-11T00:20:44;0.10;87.40
76099;DHT22;64828;49.956;8.636;2023-02-11T00:21:04;0.10;87.60
76099;DHT22;64828;49.956;8.636;2023-02-11T00:21:27;0.10;87.70
76099;DHT22;64828;49.956;8.636;2023-02-11T00:21:43;0.10;87.60
76099;DHT22;64828;49.956;8.636;2023-02-11T00:21:58;0.10;87.50
76099;DHT22;64828;49.956;8.636;2023-02-11T00:22:14;0.10;87.50
76099;DHT22;64828;49.956;8.636;2023-02-11T00:22:30;0.10;87.50
76099;DHT22;64828;49.956;8.636;2023-02-11T00:22:46;0.10;87.50
76099;DHT22;64828;49.956;8.636;2023-02-11T00:23:01;0.10;87.60
76099;DHT22;64828;49.956;8.636;2023-02-11T00:23:18;0.10;87.60
76099;DHT22;64828;49.956;8.636;2023-02-11T00:23:33;0.10;87.60
76099;DHT22;64828;49.956;8.636;2023-02-11T00:23:50;0.10;87.50
76099;DHT22;64828;49.956;8.636;2023-02-11T00:24:05;0.20;87.50
76099;DHT22;64828;49.956;8.636;2023-02-11T00:24:21;0.10;87.60
76099;DHT22;64828;49.956;8.636;2023-02-11T00:24:37;0.20;87.70
76099;DHT22;64828;49.956;8.636;2023-02-11T00:24:52;0.20;87.70
76099;DHT22;64828;49.956;8.636;2023-02-11T00:25:08;0.10;87.60
76099;DHT22;64828;49.956;8.636;2023-02-11T00:25:24;0.20;87.60
76099;DHT22;64828;49.956;8.636;2023-02-11T00:25:40;0.20;87.50
76099;DHT22;64828;49.956;8.636;2023-02-11T00:25:57;0.20;87.50
76099;DHT22;64828;49.956;8.636;2023-02-11T00:26:18;0.20;87.50
76099;DHT22;64828;49.956;8.636;2023-02-11T00:26:41;0.20;87.60
76099;DHT22;64828;49.956;8.636;2023-02-11T00:26:57;0.30;87.50
76099;DHT22;64828;49.956;8.636;2023-02-11T00:27:13;0.30;87.50
76099;DHT22;64828;49.956;8.636;2023-02-11T00:27:28;0.30;87.30
76099;DHT22;64828;49.956;8.636;2023-02-11T00:27:44;0.20;87.30
76099;DHT22;64828;49.956;8.636;2023-02-11T00:28:00;0.30;87.40
76099;DHT22;64828;49.956;8.636;2023-02-11T00:28:15;0.30;87.40
76099;DHT22;64828;49.956;8.636;2023-02-11T00:28:31;0.30;87.40
76099;DHT22;64828;49.956;8.636;2023-02-11T00:28:48;0.30;87.40
76099;DHT22;64828;49.956;8.636;2023-02-11T00:29:04;0.30;87.40
76099;DHT22;64828;49.956;8.636;2023-02-11T00:29:20;0.30;87.30
76099;DHT22;64828;49.956;8.636;2023-02-11T00:29:36;0.30;87.30
76099;DHT22;64828;49.956;8.636;2023-02-11T00:29:52;0.30;87.30
76099;DHT22;64828;49.956;8.636;2023-02-11T00:30:09;0.30;87.30
76099;DHT22;64828;49.956;8.636;2023-02-11T00:30:25;0.30;87.20
76099;DHT22;64828;49.956;8.636;2023-02-11T00:30:41;0.30;87.20
76099;DHT22;64828;49.956;8.636;2023-02-11T00:30:57;0.30;87.20
76099;DHT22;64828;49.956;8.636;2023-02-11T00:31:13;0.30;87.20
76099;DHT22;64828;49.956;8.636;2023-02-11T00:31:30;0.40;87.30
76099;DHT22;64828;49.956;8.636;2023-02-11T00:31:45;0.40;87.20
76099;DHT22;64828;49.956;8.636;2023-02-11T00:32:01;0.40;87.20
76099;DHT22;64828;49.956;8.636;2023-02-11T00:32:19;0.40;87.20
76099;DHT22;64828;49.956;8.636;2023-02-11T00:32:36;0.40;87.20
76099;DHT22;64828;49.956;8.636;2023-02-11T00:32:51;0.40;87.20
76099;DHT22;64828;49.956;8.636;2023-02-11T00:33:07;0.40;87.10
76099;DHT22;64828;49.956;8.636;2023-02-11T00:33:23;0.40;87.10
76099;DHT22;64828;49.956;8.636;2023-02-11T00:33:39;0.40;87.10
76099;DHT22;64828;49.956;8.636;2023-02-11T00:33:55;0.40;87.00
76099;DHT22;64828;49.956;8.636;2023-02-11T00:34:11;0.40;87.00
76099;DHT22;64828;49.956;8.636;2023-02-11T00:34:26;0.40;87.00
76099;DHT22;64828;49.956;8.636;2023-02-11T00:34:42;0.50;87.00
76099;DHT22;64828;49.956;8.636;2023-02-11T00:34:57;0.40;87.00
76099;DHT22;64828;49.956;8.636;2023-02-11T00:35:13;0.40;87.00
76099;DHT22;64828;49.956;8.636;2023-02-11T00:35:29;0.50;87.00
76099;DHT22;64828;49.956;8.636;2023-02-11T00:35:44;0.40;86.90
76099;DHT22;64828;49.956;8.636;2023-02-11T00:36:04;0.50;87.00
76099;DHT22;64828;49.956;8.636;2023-02-11T00:36:27;0.40;86.90
76099;DHT22;64828;49.956;8.636;2023-02-11T00:36:43;0.50;86.90
76099;DHT22;64828;49.956;8.636;2023-02-11T00:36:58;0.50;86.90
76099;DHT22;64828;49.956;8.636;2023-02-11T00:37:15;0.50;86.90
76099;DHT22;64828;49.956;8.636;2023-02-11T00:37:31;0.50;86.90
76099;DHT22;64828;49.956;8.636;2023-02-11T00:37:52;0.50;86.90
76099;DHT22;64828;49.956;8.636;2023-02-11T00:38:09;0.50;86.90
76099;DHT22;64828;49.956;8.636;2023-02-11T00:38:24;0.50;86.80
76099;DHT22;64828;49.956;8.636;2023-02-11T00:38:44;0.50;86.80
76099;DHT22;64828;49.956;8.636;2023-02-11T00:39:01;0.50;86.80
76099;DHT22;64828;49.956;8.636;2023-02-11T00:39:17;0.60;86.80
76099;DHT22;64828;49.956;8.636;2023-02-11T00:39:32;0.50;86.80
76099;DHT22;64828;49.956;8.636;2023-02-11T00:39:48;0.50;86.80
76099;DHT22;64828;49.956;8.636;2023-02-11T00:40:05;0.50;86.80
76099;DHT22;64828;49.956;8.636;2023-02-11T00:40:21;0.60;86.80
76099;DHT22;64828;49.956;8.636;2023-02-11T00:40:37;0.60;86.80
76099;DHT22;64828;49.956;8.636;2023-02-11T00:40:52;0.50;86.80
76099;DHT22;64828;49.956;8.636;2023-02-11T00:41:08;0.50;86.80
76099;DHT22;64828;49.956;8.636;2023-02-11T00:41:24;0.60;86.80
76099;DHT22;64828;49.956;8.636;2023-02-11T00:41:40;0.60;86.70
76099;DHT22;64828;49.956;8.636;2023-02-11T00:41:56;0.60;86.70
76099;DHT22;64828;49.956;8.636;2023-02-11T00:42:13;0.60;86.70
76099;DHT22;64828;49.956;8.636;2023-02-11T00:42:30;0.60;86.60
76099;DHT22;64828;49.956;8.636;2023-02-11T00:42:45;0.70;86.60
76099;DHT22;64828;49.956;8.636;2023-02-11T00:43:01;0.70;86.50
76099;DHT22;64828;49.956;8.636;2023-02-11T00:43:17;0.70;86.40
76099;DHT22;64828;49.956;8.636;2023-02-11T00:43:32;0.70;86.40
76099;DHT22;64828;49.956;8.636;2023-02-11T00:43:50;0.70;86.40
76099;DHT22;64828;49.956;8.636;2023-02-11T00:44:06;0.70;86.30
76099;DHT22;64828;49.956;8.636;2023-02-11T00:44:21;0.70;86.30
76099;DHT22;64828;49.956;8.636;2023-02-11T00:44:37;0.70;86.30
76099;DHT22;64828;49.956;8.636;2023-02-11T00:44:53;0.70;86.30
76099;DHT22;64828;49.956;8.636;2023-02-11T00:45:08;0.70;86.20
76099;DHT22;64828;49.956;8.636;2023-02-11T00:45:24;0.80;86.20
76099;DHT22;64828;49.956;8.636;2023-02-11T00:45:40;0.70;86.20
76099;DHT22;64828;49.956;8.636;2023-02-11T00:45:55;0.70;86.20
76099;DHT22;64828;49.956;8.636;2023-02-11T00:46:11;0.80;86.10
76099;DHT22;64828;49.956;8.636;2023-02-11T00:46:28;0.80;86.10
76099;DHT22;64828;49.956;8.636;2023-02-11T00:46:44;0.80;86.00
76099;DHT22;64828;49.956;8.636;2023-02-11T00:46:59;0.80;86.00
76099;DHT22;64828;49.956;8.636;2023-02-11T00:47:15;0.80;86.00
76099;DHT22;64828;49.956;8.636;2023-02-11T00:47:30;0.80;85.90
76099;DHT22;64828;49.956;8.636;2023-02-11T00:47:46;0.80;85.90
76099;DHT22;64828;49.956;8.636;2023-02-11T00:48:02;0.80;85.80
76099;DHT22;64828;49.956;8.636;2023-02-11T00:48:17;0.80;85.80
76099;DHT22;64828;49.956;8.636;2023-02-11T00:48:33;0.90;85.80
76099;DHT22;64828;49.956;8.636;2023-02-11T00:48:49;0.80;85.90
76099;DHT22;64828;49.956;8.636;2023-02-11T00:49:11;0.80;85.90
76099;DHT22;64828;49.956;8.636;2023-02-11T00:49:27;0.80;85.90
76099;DHT22;64828;49.956;8.636;2023-02-11T00:49:43;0.80;85.80
76099;DHT22;64828;49.956;8.636;2023-02-11T00:49:58;0.90;85.70
76099;DHT22;64828;49.956;8.636;2023-02-11T00:50:15;0.90;85.60
76099;DHT22;64828;49.956;8.636;2023-02-11T00:50:30;0.90;85.60
76099;DHT22;64828;49.956;8.636;2023-02-11T00:50:46;0.90;85.60
76099;DHT22;64828;49.956;8.636;2023-02-11T00:51:02;0.90;85.70
76099;DHT22;64828;49.956;8.636;2023-02-11T00:51:18;0.90;85.70
76099;DHT22;64828;49.956;8.636;2023-02-11T00:51:34;0.90;85.60
76099;DHT22;64828;49.956;8.636;2023-02-11T00:51:49;0.90;85.50
76099;DHT22;64828;49.956;8.636;2023-02-11T00:52:05;0.90;85.50
76099;DHT22;64828;49.956;8.636;2023-02-11T00:52:21;0.90;85.50
76099;DHT22;64828;49.956;8.636;2023-02-11T00:52:36;1.00;85.40
76099;DHT22;64828;49.956;8.636;2023-02-11T00:52:52;0.90;85.30
76099;DHT22;64828;49.956;8.636;2023-02-11T00:53:08;1.00;85.20
76099;DHT22;64828;49.956;8.636;2023-02-11T00:53:23;1.00;85.20
76099;DHT22;64828;49.956;8.636;2023-02-11T00:53:40;1.00;85.30
76099;DHT22;64828;49.956;8.636;2023-02-11T00:53:56;1.00;85.40
76099;DHT22;64828;49.956;8.636;2023-02-11T00:54:12;1.00;85.30
76099;DHT22;64828;49.956;8.636;2023-02-11T00:54:27;1.00;85.20
76099;DHT22;64828;49.956;8.636;2023-02-11T00:54:43;1.00;85.20
76099;DHT22;64828;49.956;8.636;2023-02-11T00:54:59;1.00;85.00
76099;DHT22;64828;49.956;8.636;2023-02-11T00:55:15;1.00;84.90
76099;DHT22;64828;49.956;8.636;2023-02-11T00:55:31;1.00;84.90
76099;DHT22;64828;49.956;8.636;2023-02-11T00:55:47;1.00;84.90
76099;DHT22;64828;49.956;8.636;2023-02-11T00:56:03;1.10;85.00
76099;DHT22;64828;49.956;8.636;2023-02-11T00:56:19;1.10;84.90
76099;DHT22;64828;49.956;8.636;2023-02-11T00:56:35;1.10;84.80
76099;DHT22;64828;49.956;8.636;2023-02-11T00:56:51;1.10;84.70
76099;DHT22;64828;49.956;8.636;2023-02-11T00:57:07;1.10;84.70
76099;DHT22;64828;49.956;8.636;2023-02-11T00:57:22;1.10;84.70
76099;DHT22;64828;49.956;8.636;2023-02-11T00:57:38;1.10;84.70
76099;DHT22;64828;49.956;8.636;2023-02-11T00:57:54;1.20;84.60
76099;DHT22;64828;49.956;8.636;2023-02-11T00:58:09;1.10;84.50
76099;DHT22;64828;49.956;8.636;2023-02-11T00:58:25;1.20;84.50
76099;DHT22;64828;49.956;8.636;2023-02-11T00:58:41;1.20;84.50
76099;DHT22;64828;49.956;8.636;2023-02-11T00:58:57;1.20;84.40
76099;DHT22;64828;49.956;8.636;2023-02-11T00:59:13;1.20;84.40
76099;DHT22;64828;49.956;8.636;2023-02-11T00:59:28;1.20;84.40
76099;DHT22;64828;49.956;8.636;2023-02-11T00:59:44;1.20;84.40
76099;DHT22;64828;49.956;8.636;2023-02-11T01:00:00;1.20;84.50
76099;DHT22;64828;49.956;8.636;2023-02-11T01:00:16;1.20;84.40
76099;DHT22;64828;49.956;8.636;2023-02-11T01:00:31;1.20;84.40
76099;DHT22;64828;49.956;8.636;2023-02-11T01:00:47;1.20;84.40
76099;DHT22;64828;49.956;8.636;2023-02-11T01:01:03;1.20;84.50
76099;DHT22;64828;49.956;8.636;2023-02-11T01:01:19;1.20;84.60
76099;DHT22;64828;49.956;8.636;2023-02-11T01:01:35;1.20;84.60
76099;DHT22;64828;49.956;8.636;2023-02-11T01:01:50;1.20;84.50
76099;DHT22;64828;49.956;8.636;2023-02-11T01:02:06;1.20;84.50
76099;DHT22;64828;49.956;8.636;2023-02-11T01:02:22;1.20;84.50
76099;DHT22;64828;49.956;8.636;2023-02-11T01:02:38;1.20;84.40
76099;DHT22;64828;49.956;8.636;2023-02-11T01:02:53;1.20;84.40
76099;DHT22;64828;49.956;8.636;2023-02-11T01:03:09;1.20;84.30
76099;DHT22;64828;49.956;8.636;2023-02-11T01:03:25;1.20;84.20
76099;DHT22;64828;49.956;8.636;2023-02-11T01:03:41;1.20;84.20
76099;DHT22;64828;49.956;8.636;2023-02-11T01:03:56;1.30;84.10
76099;DHT22;64828;49.956;8.636;2023-02-11T01:04:12;1.20;84.10
76099;DHT22;64828;49.956;8.636;2023-02-11T01:04:28;1.30;84.10
76099;DHT22;64828;49.956;8.636;2023-02-11T01:04:44;1.30;84.00
76099;DHT22;64828;49.956;8.636;2023-02-11T01:05:00;1.30;83.90
76099;DHT22;64828;49.956;8.636;2023-02-11T01:05:16;1.30;84.00
76099;DHT22;64828;49.956;8.636;2023-02-11T01:05:32;1.30;84.10
76099;DHT22;64828;49.956;8.636;2023-02-11T01:05:47;1.30;84.10
76099;DHT22;64828;49.956;8.636;2023-02-11T01:06:04;1.30;84.00
76099;DHT22;64828;49.956;8.636;2023-02-11T01:06:21;1.30;84.00
76099;DHT22;64828;49.956;8.636;2023-02-11T01:06:37;1.30;84.10
76099;DHT22;64828;49.956;8.636;2023-02-11T01:06:53;1.30;84.00
76099;DHT22;64828;49.956;8.636;2023-02-11T01:07:08;1.30;84.00
76099;DHT22;64828;49.956;8.636;2023-02-11T01:07:25;1.30;84.00
76099;DHT22;64828;49.956;8.636;2023-02-11T01:07:41;1.30;83.90
76099;DHT22;64828;49.956;8.636;2023-02-11T01:07:57;1.30;83.90
76099;DHT22;64828;49.956;8.636;2023-02-11T01:08:13;1.30;84.00
76099;DHT22;64828;49.956;8.636;2023-02-11T01:08:29;1.30;83.90
76099;DHT22;64828;49.956;8.636;2023-02-11T01:08:45;1.30;84.00
76099;DHT22;64828;49.956;8.636;2023-02-11T01:09:00;1.30;83.90
76099;DHT22;64828;49.956;8.636;2023-02-11T01:09:16;1.30;83.90
76099;DHT22;64828;49.956;8.636;2023-02-11T01:09:31;1.30;84.00
76099;DHT22;64828;49.956;8.636;2023-02-11T01:09:47;1.30;83.90
76099;DHT22;64828;49.956;8.636;2023-02-11T01:10:03;1.30;83.80
76099;DHT22;64828;49.956;8.636;2023-02-11T01:10:19;1.30;83.80
76099;DHT22;64828;49.956;8.636;2023-02-11T01:10:35;1.30;83.90
76099;DHT22;64828;49.956;8.636;2023-02-11T01:10:55;1.30;83.90
76099;DHT22;64828;49.956;8.636;2023-02-11T01:11:15;1.40;83.90
76099;DHT22;64828;49.956;8.636;2023-02-11T01:11:32;1.30;83.90
76099;DHT22;64828;49.956;8.636;2023-02-11T01:11:48;1.30;83.80
76099;DHT22;64828;49.956;8.636;2023-02-11T01:12:04;1.30;83.80
76099;DHT22;64828;49.956;8.636;2023-02-11T01:12:20;1.30;83.80
76099;DHT22;64828;49.956;8.636;2023-02-11T01:12:36;1.30;83.90
76099;DHT22;64828;49.956;8.636;2023-02-11T01:12:52;1.30;83.90
76099;DHT22;64828;49.956;8.636;2023-02-11T01:13:07;1.40;83.80
76099;DHT22;64828;49.956;8.636;2023-02-11T01:13:24;1.40;83.90
76099;DHT22;64828;49.956;8.636;2023-02-11T01:13:41;1.30;83.90
76099;DHT22;64828;49.956;8.636;2023-02-11T01:13:57;1.30;83.80
76099;DHT22;64828;49.956;8.636;2023-02-11T01:14:13;1.40;83.80
76099;DHT22;64828;49.956;8.636;2023-02-11T01:14:28;1.30;84.00
76099;DHT22;64828;49.956;8.636;2023-02-11T01:14:44;1.40;83.80
76099;DHT22;64828;49.956;8.636;2023-02-11T01:15:00;1.30;83.80
76099;DHT22;64828;49.956;8.636;2023-02-11T01:15:17;1.40;83.80
76099;DHT22;64828;49.956;8.636;2023-02-11T01:15:33;1.40;83.90
76099;DHT22;64828;49.956;8.636;2023-02-11T01:15:49;1.40;83.90
76099;DHT22;64828;49.956;8.636;2023-02-11T01:16:06;1.40;83.90
76099;DHT22;64828;49.956;8.636;2023-02-11T01:16:22;1.40;83.90
76099;DHT22;64828;49.956;8.636;2023-02-11T01:16:38;1.40;83.90
76099;DHT22;64828;49.956;8.636;2023-02-11T01:16:55;1.40;83.90
76099;DHT22;64828;49.956;8.636;2023-02-11T01:17:10;1.30;83.90
76099;DHT22;64828;49.956;8.636;2023-02-11T01:17:26;1.40;83.90
76099;DHT22;64828;49.956;8.636;2023-02-11T01:17:42;1.40;83.80
76099;DHT22;64828;49.956;8.636;2023-02-11T01:17:58;1.40;83.80
76099;DHT22;64828;49.956;8.636;2023-02-11T01:18:14;1.40;83.90
76099;DHT22;64828;49.956;8.636;2023-02-11T01:18:29;1.40;83.80
76099;DHT22;64828;49.956;8.636;2023-02-11T01:18:45;1.40;83.90
76099;DHT22;64828;49.956;8.636;2023-02-11T01:19:01;1.40;84.00
76099;DHT22;64828;49.956;8.636;2023-02-11T01:19:17;1.40;83.90
76099;DHT22;64828;49.956;8.636;2023-02-11T01:19:33;1.40;83.80
76099;DHT22;64828;49.956;8.636;2023-02-11T01:19:48;1.40;83.80
76099;DHT22;64828;49.956;8.636;2023-02-11T01:20:05;1.40;83.90
76099;DHT22;64828;49.956;8.636;2023-02-11T01:20:25;1.40;83.80
76099;DHT22;64828;49.956;8.636;2023-02-11T01:20:42;1.40;83.70
76099;DHT22;64828;49.956;8.636;2023-02-11T01:20:58;1.40;83.60
76099;DHT22;64828;49.956;8.636;2023-02-11T01:21:13;1.50;83.60
76099;DHT22;64828;49.956;8.636;2023-02-11T01:21:29;1.50;83.70
76099;DHT22;64828;49.956;8.636;2023-02-11T01:21:44;1.40;83.70
76099;DHT22;64828;49.956;8.636;2023-02-11T01:22:00;1.40;83.80
76099;DHT22;64828;49.956;8.636;2023-02-11T01:22:16;1.40;83.90
76099;DHT22;64828;49.956;8.636;2023-02-11T01:22:32;1.40;83.90
76099;DHT22;64828;49.956;8.636;2023-02-11T01:22:48;1.40;83.80
76099;DHT22;64828;49.956;8.636;2023-02-11T01:23:04;1.50;83.90
76099;DHT22;64828;49.956;8.636;2023-02-11T01:23:20;1.50;83.70
76099;DHT22;64828;49.956;8.636;2023-02-11T01:23:36;1.50;83.60
76099;DHT22;64828;49.956;8.636;2023-02-11T01:23:52;1.50;83.60
76099;DHT22;64828;49.956;8.636;2023-02-11T01:24:07;1.50;83.70
76099;DHT22;64828;49.956;8.636;2023-02-11T01:24:23;1.50;83.80
76099;DHT22;64828;49.956;8.636;2023-02-11T01:24:39;1.40;84.00
76099;DHT22;64828;49.956;8.636;2023-02-11T01:24:54;1.50;83.90
76099;DHT22;64828;49.956;8.636;2023-02-11T01:25:11;1.50;83.80
76099;DHT22;64828;49.956;8.636;2023-02-11T01:25:27;1.50;83.60
76099;DHT22;64828;49.956;8.636;2023-02-11T01:25:43;1.50;83.50
76099;DHT22;64828;49.956;8.636;2023-02-11T01:25:58;1.50;83.50
76099;DHT22;64828;49.956;8.636;2023-02-11T01:26:14;1.50;83.50
76099;DHT22;64828;49.956;8.636;2023-02-11T01:26:29;1.50;83.50
76099;DHT22;64828;49.956;8.636;2023-02-11T01:26:45;1.50;83.50
76099;DHT22;64828;49.956;8.636;2023-02-11T01:27:01;1.50;83.50
76099;DHT22;64828;49.956;8.636;2023-02-11T01:27:16;1.50;83.40
76099;DHT22;64828;49.956;8.636;2023-02-11T01:27:32;1.50;83.50
76099;DHT22;64828;49.956;8.636;2023-02-11T01:27:48;1.50;83.60
76099;DHT22;64828;49.956;8.636;2023-02-11T01:28:04;1.50;83.50
76099;DHT22;64828;49.956;8.636;2023-02-11T01:28:23;1.50;83.60
76099;DHT22;64828;49.956;8.636;2023-02-11T01:28:40;1.50;83.60
76099;DHT22;64828;49.956;8.636;2023-02-11T01:28:55;1.50;83.70
76099;DHT22;64828;49.956;8.636;2023-02-11T01:29:11;1.50;83.70
76099;DHT22;64828;49.956;8.636;2023-02-11T01:29:27;1.50;83.50
76099;DHT22;64828;49.956;8.636;2023-02-11T01:29:42;1.50;83.60
76099;DHT22;64828;49.956;8.636;2023-02-11T01:29:58;1.50;83.60
76099;DHT22;64828;49.956;8.636;2023-02-11T01:30:14;1.50;83.50
76099;DHT22;64828;49.956;8.636;2023-02-11T01:30:29;1.50;83.60
76099;DHT22;64828;49.956;8.636;2023-02-11T01:30:45;1.50;83.50
76099;DHT22;64828;49.956;8.636;2023-02-11T01:31:02;1.50;83.60
76099;DHT22;64828;49.956;8.636;2023-02-11T01:31:18;1.50;83.60
76099;DHT22;64828;49.956;8.636;2023-02-11T01:31:34;1.50;83.50
76099;DHT22;64828;49.956;8.636;2023-02-11T01:31:49;1.50;83.60
76099;DHT22;64828;49.956;8.636;2023-02-11T01:32:05;1.50;83.60
76099;DHT22;64828;49.956;8.636;2023-02-11T01:32:21;1.60;83.50
76099;DHT22;64828;49.956;8.636;2023-02-11T01:32:37;1.60;83.60
76099;DHT22;64828;49.956;8.636;2023-02-11T01:32:52;1.50;83.60
76099;DHT22;64828;49.956;8.636;2023-02-11T01:33:08;1.50;83.60
76099;DHT22;64828;49.956;8.636;2023-02-11T01:33:24;1.50;83.50
76099;DHT22;64828;49.956;8.636;2023-02-11T01:33:39;1.60;83.30
76099;DHT22;64828;49.956;8.636;2023-02-11T01:33:55;1.60;83.20
76099;DHT22;64828;49.956;8.636;2023-02-11T01:34:10;1.60;83.10
76099;DHT22;64828;49.956;8.636;2023-02-11T01:34:26;1.60;83.20
76099;DHT22;64828;49.956;8.636;2023-02-11T01:34:42;1.60;83.30
76099;DHT22;64828;49.956;8.636;2023-02-11T01:34:57;1.60;83.40
76099;DHT22;64828;49.956;8.636;2023-02-11T01:35:13;1.60;83.40
76099;DHT22;64828;49.956;8.636;2023-02-11T01:35:29;1.60;83.30
76099;DHT22;64828;49.956;8.636;2023-02-11T01:35:44;1.60;83.30
76099;DHT22;64828;49.956;8.636;2023-02-11T01:36:04;1.60;83.30
76099;DHT22;64828;49.956;8.636;2023-02-11T01:36:20;1.60;83.30
76099;DHT22;64828;49.956;8.636;2023-02-11T01:36:36;1.60;83.20
76099;DHT22;64828;49.956;8.636;2023-02-11T01:36:56;1.60;83.20
76099;DHT22;64828;49.956;8.636;2023-02-11T01:37:13;1.60;83.10
76099;DHT22;64828;49.956;8.636;2023-02-11T01:37:28;1.60;83.10
76099;DHT22;64828;49.956;8.636;2023-02-11T01:37:47;1.60;83.00
76099;DHT22;64828;49.956;8.636;2023-02-11T01:38:03;1.60;83.10
76099;DHT22;64828;49.956;8.636;2023-02-11T01:38:24;1.60;83.00
76099;DHT22;64828;49.956;8.636;2023-02-11T01:38:40;1.60;83.00
76099;DHT22;64828;49.956;8.636;2023-02-11T01:38:56;1.60;83.10
76099;DHT22;64828;49.956;8.636;2023-02-11T01:39:11;1.60;83.10
76099;DHT22;64828;49.956;8.636;2023-02-11T01:39:27;1.60;83.20
76099;DHT22;64828;49.956;8.636;2023-02-11T01:39:43;1.70;83.10
76099;DHT22;64828;49.956;8.636;2023-02-11T01:40:01;1.70;83.10
76099;DHT22;64828;49.956;8.636;2023-02-11T01:40:17;1.60;83.20
76099;DHT22;64828;49.956;8.636;2023-02-11T01:40:33;1.60;83.30
76099;DHT22;64828;49.956;8.636;2023-02-11T01:40:57;1.60;83.30
76099;DHT22;64828;49.956;8.636;2023-02-11T01:41:20;1.60;83.20
76099;DHT22;64828;49.956;8.636;2023-02-11T01:41:37;1.60;83.30
76099;DHT22;64828;49.956;8.636;2023-02-11T01:41:53;1.70;83.20
76099;DHT22;64828;49.956;8.636;2023-02-11T01:42:15;1.70;83.00
76099;DHT22;64828;49.956;8.636;2023-02-11T01:42:36;1.70;82.90
76099;DHT22;64828;49.956;8.636;2023-02-11T01:42:51;1.70;83.00
76099;DHT22;64828;49.956;8.636;2023-02-11T01:43:09;1.70;83.10
76099;DHT22;64828;49.956;8.636;2023-02-11T01:43:33;1.70;83.00
76099;DHT22;64828;49.956;8.636;2023-02-11T01:43:51;1.70;82.90
76099;DHT22;64828;49.956;8.636;2023-02-11T01:44:27;1.70;82.70
76099;DHT22;64828;49.956;8.636;2023-02-11T01:44:49;1.70;82.80
76099;DHT22;64828;49.956;8.636;2023-02-11T01:46:37;1.70;82.70